Latest Weather Observations for St Helens

IDT60801

Issued at 9:31 pm EDT Friday 30 January 2015 (issued every 30 minutes, with the page automatically refreshed every 10 minutes)

About weather observations | Map of weather stations | Latest weather observations for TAS | Other Formats
Station Details ID: 092120 Name: ST HELENS AERODROME Lat: -41.34 Lon: 148.28 Height: 48.0 m
Data from the previous 72 hours. | See also: Recent months at St Helens
Date/Time
EDT
Temp
°C
App
Temp
°C
Dew
Point
Rel
Hum
%
Delta-T
°C
Wind Press
QNH
hPa
Press
MSL
hPa
Rain
since 9 am
mm
Dir
 
Spd
km/h
Gust
km/h
Spd
kts
Gust
kts
30/09:30pm 14.6 10.6 8.1 65 3.3 S 19 37 10 20 1011.0 - 0.0
30/09:00pm 14.8 10.6 8.3 65 3.3 S 20 39 11 21 1011.0 1010.8 0.0
30/08:30pm 14.9 11.7 8.4 65 3.3 S 15 28 8 15 1011.2 - 0.0
30/08:00pm 15.1 11.9 8.3 64 3.4 S 15 32 8 17 1011.1 - 0.0
30/07:30pm 15.5 10.9 8.3 62 3.6 SSW 22 43 12 23 1011.1 - 0.0
30/07:00pm 15.5 10.9 8.0 61 3.8 S 22 39 12 21 1011.2 - 0.0
30/06:30pm 15.6 11.6 8.1 61 3.8 S 19 41 10 22 1011.4 - 0.0
30/06:00pm 15.4 10.9 8.4 63 3.5 S 22 41 12 22 1011.6 1011.4 0.0
30/05:30pm 15.7 10.5 8.7 63 3.6 S 26 50 14 27 1011.8 - 0.0
30/05:15pm 15.5 9.9 8.7 64 3.5 S 28 46 15 25 1011.9 - 0.0
30/05:00pm 15.8 10.6 8.8 63 3.6 S 26 44 14 24 1012.0 - 0.0
30/04:36pm 15.2 9.7 9.1 67 3.1 S 28 48 15 26 1012.2 - 0.0
30/04:30pm 15.6 11.3 9.5 67 3.2 S 22 43 12 23 1012.3 - 0.0
30/04:18pm 15.7 10.3 9.6 67 3.2 S 28 50 15 27 1012.3 - 0.0
30/04:00pm 15.9 10.9 9.6 66 3.3 S 26 50 14 27 1012.3 - 0.0
30/03:30pm 16.3 10.0 9.0 62 3.8 S 32 61 17 33 1012.3 - 0.0
30/03:00pm 16.7 10.8 9.1 61 3.9 S 30 56 16 30 1012.6 1012.4 0.0
30/02:30pm 16.2 9.9 8.9 62 3.8 S 32 52 17 28 1012.9 - 0.0
30/02:04pm 15.8 10.3 9.0 64 3.5 S 28 50 15 27 1013.1 - 0.0
30/02:00pm 15.9 10.6 8.6 62 3.7 S 26 43 14 23 1013.2 - 0.0
30/01:30pm 15.7 9.6 8.4 62 3.7 S 30 52 16 28 1013.3 - 0.0
30/01:00pm 16.0 10.5 9.2 64 3.5 S 28 48 15 26 1013.6 - 0.0
30/12:30pm 15.3 8.1 7.6 60 3.8 S 35 59 19 32 1013.8 - 0.0
30/12:00pm 14.9 9.2 8.4 65 3.3 S 28 54 15 29 1014.1 1013.9 0.0
30/11:36am 14.7 8.9 8.0 64 3.4 S 28 48 15 26 1014.4 - 0.0
30/11:30am 15.0 9.7 8.3 64 3.4 S 26 48 14 26 1014.6 - 0.0
30/11:02am 14.6 8.8 7.9 64 3.3 S 28 54 15 29 1014.6 - 0.0
30/11:00am 14.7 9.3 8.0 64 3.4 S 26 54 14 29 1014.6 - 0.0
30/10:30am 15.4 9.2 7.7 60 3.8 S 30 50 16 27 1014.6 - 0.0
30/10:09am 14.6 8.8 8.1 65 3.3 S 28 56 15 30 1014.9 - 0.0
30/10:00am 14.5 9.6 8.5 67 3.0 S 24 48 13 26 1015.0 - 0.0
30/09:36am 14.1 8.5 8.7 70 2.7 S 28 52 15 28 1015.2 - 0.0
30/09:30am 14.3 9.4 8.3 67 3.0 S 24 41 13 22 1015.2 - 0.0
30/09:00am 14.4 9.4 8.1 66 3.1 S 24 46 13 25 1015.1 1015.0 2.0
30/08:30am 13.5 7.3 7.9 69 2.8 S 30 50 16 27 1015.4 - 2.0
30/08:27am 13.6 7.8 7.8 68 2.9 S 28 46 15 25 1015.4 - 2.0
30/08:00am 13.6 8.3 6.9 64 3.2 S 24 52 13 28 1015.4 - 2.0
30/07:30am 13.5 8.2 6.8 64 3.2 S 24 44 13 24 1015.3 - 2.0
30/07:02am 13.3 7.3 7.1 66 3.0 S 28 56 15 30 1015.3 - 2.0
30/07:00am 13.2 7.6 7.0 66 3.0 S 26 56 14 30 1015.3 - 2.0
30/06:30am 13.1 7.8 6.9 66 3.0 S 24 44 13 24 1015.4 - 2.0
30/06:25am 13.1 7.0 6.7 65 3.1 S 28 48 15 26 1015.4 - 2.0
30/06:00am 13.1 7.4 6.9 66 3.0 S 26 41 14 22 1015.4 1015.3 2.0
30/05:30am 13.2 7.5 6.8 65 3.1 S 26 43 14 23 1015.5 - 2.0
30/05:00am 13.1 8.6 6.9 66 3.0 S 20 39 11 21 1015.6 - 2.0
30/04:30am 12.8 7.3 7.7 71 2.5 S 26 48 14 26 1015.7 - 2.0
30/04:02am 12.0 6.4 8.8 81 1.6 S 28 54 15 29 1016.0 - 2.0
30/04:00am 12.0 6.8 8.8 81 1.6 S 26 54 14 29 1016.1 - 2.0
30/03:30am 13.2 7.3 7.6 69 2.7 S 28 48 15 26 1016.4 - 2.0
30/03:00am 12.6 7.8 7.5 71 2.5 S 22 39 12 21 1016.5 1016.4 2.0
30/02:30am 12.7 7.5 7.4 70 2.6 S 24 39 13 21 1016.9 - 2.0
30/02:00am 12.5 8.1 7.2 70 2.6 S 20 43 11 23 1017.2 - 2.0
30/01:30am 12.7 7.8 6.7 67 2.9 S 22 44 12 24 1017.6 - 2.0
30/01:00am 12.7 8.1 6.3 65 3.0 S 20 33 11 18 1018.0 - 2.0
30/12:30am 12.8 7.7 6.2 64 3.1 S 22 39 12 21 1018.2 - 2.0
30/12:00am 12.7 8.3 6.5 66 3.0 SSW 19 32 10 17 1018.4 1018.3 2.0
 
Date/Time
EDT
Temp
°C
App
Temp
°C
Dew
Point
Rel
Hum
%
Delta-T
°C
Wind Press
QNH
hPa
Press
MSL
hPa
Rain
since 9 am
mm
Dir
 
Spd
km/h
Gust
km/h
Spd
kts
Gust
kts
29/11:30pm 12.8 7.7 7.5 70 2.6 S 24 44 13 24 1018.9 - 2.0
29/11:00pm 13.1 8.5 6.5 64 3.2 S 20 43 11 23 1019.5 - 2.0
29/10:30pm 13.1 8.0 5.8 61 3.4 S 22 39 12 21 1019.7 - 2.0
29/10:00pm 13.0 8.3 5.9 62 3.4 S 20 33 11 18 1019.7 - 2.0
29/09:30pm 13.1 8.0 6.2 63 3.3 S 22 39 12 21 1019.8 - 2.0
29/09:00pm 13.3 7.9 6.2 62 3.4 S 24 41 13 22 1019.8 1019.7 2.0
29/08:30pm 13.6 8.2 6.5 62 3.4 S 24 43 13 23 1019.9 - 2.0
29/08:00pm 14.1 7.8 7.4 64 3.3 S 30 56 16 30 1020.0 - 2.0
29/07:30pm 14.4 8.4 7.2 62 3.5 S 28 46 15 25 1019.8 - 2.0
29/07:00pm 14.0 8.2 7.8 66 3.1 S 28 52 15 28 1019.9 - 2.0
29/06:30pm 14.7 8.2 8.0 64 3.4 S 32 52 17 28 1019.8 - 2.0
29/06:09pm 15.1 9.6 9.0 67 3.1 S 28 48 15 26 1019.9 - 2.0
29/06:00pm 14.5 9.8 9.3 71 2.7 S 24 41 13 22 1019.9 1019.8 2.0
29/05:30pm 15.4 9.8 8.9 65 3.3 S 28 54 15 29 1020.2 - 1.8
29/05:13pm 16.6 11.0 8.8 60 4.0 S 28 54 15 29 1020.3 - 1.8
29/05:00pm 16.5 16.4 9.4 63 3.7 CALM 0 0 0 0 1020.5 - 1.8
29/04:30pm 16.9 16.6 8.8 59 4.2 CALM 0 0 0 0 1020.5 - 1.8
29/04:00pm 16.5 16.3 9.2 62 3.8 CALM 0 0 0 0 1020.6 - 1.8
29/03:30pm 15.5 9.3 10.1 70 2.8 S 33 54 18 29 1021.1 - 1.8
29/03:02pm 17.1 12.0 10.7 66 3.4 S 28 46 15 25 1021.2 - 1.8
29/03:00pm 16.7 11.5 10.1 65 3.5 S 28 46 15 25 1021.2 1021.1 1.8
29/02:30pm 16.6 10.6 10.2 66 3.4 S 32 57 17 31 1021.2 - 1.8
29/02:01pm 16.7 11.5 10.1 65 3.5 S 28 48 15 26 1021.3 - 1.8
29/02:00pm 17.0 12.2 10.4 65 3.5 S 26 48 14 26 1021.2 - 1.8
29/01:31pm 16.1 10.8 10.0 67 3.2 S 28 56 15 30 1021.4 - 1.8
29/01:30pm 16.4 11.6 10.3 67 3.2 S 26 56 14 30 1021.5 - 1.8
29/01:01pm 15.1 9.9 10.3 73 2.5 S 28 48 15 26 1021.6 - 1.8
29/01:00pm 15.0 9.8 10.4 74 2.4 S 28 43 15 23 1021.6 - 1.8
29/12:30pm 15.2 11.3 10.8 75 2.3 S 22 43 12 23 1021.7 - 1.8
29/12:00pm 14.3 11.1 12.0 86 1.2 S 20 39 11 21 1022.1 1022.0 1.8
29/11:57am 14.3 11.2 12.3 88 1.1 S 20 43 11 23 1022.1 - 1.8
29/11:45am 13.6 10.6 12.0 90 0.9 S 19 35 10 19 1022.2 - 1.8
29/11:40am 13.5 10.5 11.9 90 0.9 S 19 35 10 19 1022.1 - 1.8
29/11:30am 13.2 9.8 11.4 89 1.0 S 20 33 11 18 1022.1 - 1.6
29/11:18am 13.5 9.0 11.4 87 1.1 S 26 43 14 23 1022.3 - 1.2
29/11:05am 14.4 10.8 11.9 85 1.4 S 22 39 12 21 1022.2 - 1.2
29/11:00am 14.1 10.1 11.8 86 1.2 S 24 39 13 21 1022.2 - 1.2
29/10:45am 13.4 9.6 11.1 86 1.2 S 22 37 12 20 1022.2 - 1.2
29/10:30am 13.2 9.6 10.7 85 1.3 S 20 37 11 20 1022.3 - 1.0
29/10:00am 12.1 8.6 10.2 88 1.0 S 19 35 10 19 1022.2 - 0.8
29/09:30am 11.9 8.0 9.5 85 1.2 S 20 39 11 21 1022.5 - 0.2
29/09:00am 13.5 9.4 7.9 69 2.8 S 19 37 10 20 1022.3 1022.2 0.4
29/08:30am 13.9 9.7 7.4 65 3.2 S 19 33 10 18 1022.0 - 0.4
29/08:00am 13.8 9.4 7.6 66 3.1 S 20 41 11 22 1021.8 - 0.4
29/07:30am 14.0 8.0 7.1 63 3.4 S 28 50 15 27 1021.6 - 0.4
29/07:00am 13.9 7.7 7.7 66 3.1 S 30 48 16 26 1021.4 - 0.4
29/06:31am 13.9 8.1 7.9 67 3.0 S 28 50 15 27 1021.1 - 0.4
29/06:30am 13.9 8.1 7.9 67 3.0 S 28 44 15 24 1021.1 - 0.4
29/06:14am 13.9 8.0 7.7 66 3.1 S 28 46 15 25 1021.2 - 0.4
29/06:00am 13.9 8.5 7.9 67 3.0 S 26 46 14 25 1021.3 1021.2 0.4
29/05:42am 13.7 8.0 8.3 70 2.7 S 28 54 15 29 1021.2 - 0.4
29/05:30am 13.2 9.4 8.9 75 2.2 S 19 35 10 19 1021.3 - 0.4
29/05:00am 12.3 8.5 9.0 80 1.7 S 19 32 10 17 1021.1 - 0.4
29/04:30am 11.8 8.0 9.2 84 1.3 S 19 37 10 20 1021.1 - 0.2
29/04:00am 12.6 8.5 7.7 72 2.4 SSW 19 32 10 17 1021.0 - 0.0
29/03:30am 12.8 8.7 7.7 71 2.5 S 19 35 10 19 1021.3 - 0.0
29/03:00am 12.9 8.4 7.1 68 2.8 S 20 35 11 19 1021.5 1021.4 0.0
29/02:30am 13.2 8.9 7.2 67 2.9 S 19 32 10 17 1021.6 - 0.0
29/02:00am 13.3 9.4 7.1 66 3.0 SSW 17 30 9 16 1021.8 - 0.0
29/01:30am 13.1 9.6 7.1 67 2.9 S 15 26 8 14 1022.2 - 0.0
29/01:00am 13.0 9.1 7.0 67 2.9 SSW 17 30 9 16 1022.3 - 0.0
29/12:30am 12.7 8.7 6.7 67 2.9 S 17 30 9 16 1022.7 - 0.0
29/12:00am 12.7 9.2 7.0 68 2.7 S 15 24 8 13 1022.7 1022.6 0.0
 
Date/Time
EDT
Temp
°C
App
Temp
°C
Dew
Point
Rel
Hum
%
Delta-T
°C
Wind Press
QNH
hPa
Press
MSL
hPa
Rain
since 9 am
mm
Dir
 
Spd
km/h
Gust
km/h
Spd
kts
Gust
kts
28/11:30pm 12.8 9.3 7.3 69 2.7 SSW 15 26 8 14 1022.9 - 0.0
28/11:00pm 13.0 8.9 7.7 70 2.6 S 19 33 10 18 1023.3 - 0.0
28/10:30pm 12.7 9.3 7.8 72 2.4 SSW 15 24 8 13 1023.4 - 0.0
28/10:00pm 12.9 8.7 7.6 70 2.6 S 19 39 10 21 1023.4 - 0.0
28/09:30pm 13.3 9.4 7.3 67 2.9 SSW 17 28 9 15 1023.6 - 0.0
28/09:00pm 13.3 9.1 8.2 71 2.5 S 20 33 11 18 1023.2 1023.1 0.0
28/08:30pm 13.7 10.3 7.5 66 3.0 S 15 30 8 16 1023.1 - 0.0
28/08:00pm 14.0 9.7 7.1 63 3.4 S 19 35 10 19 1023.1 - 0.0
28/07:30pm 14.2 9.5 7.7 65 3.2 S 22 41 12 22 1022.9 - 0.0
28/07:00pm 14.8 10.0 7.4 61 3.7 S 22 41 12 22 1022.8 - 0.0
28/06:30pm 15.9 10.7 7.4 57 4.2 S 24 41 13 22 1022.6 - 0.0
28/06:12pm 15.5 9.6 7.3 58 4.1 S 28 46 15 25 1022.5 - 0.0
28/06:00pm 15.3 9.9 7.8 61 3.7 S 26 43 14 23 1022.5 1022.4 0.0
28/05:30pm 15.9 10.8 7.7 58 4.1 S 24 43 13 23 1022.5 - 0.0
28/05:22pm 16.5 11.0 7.4 55 4.6 S 26 44 14 24 1022.5 - -
28/05:12pm 15.9 9.9 6.9 55 4.4 S 28 50 15 27 1022.5 - 0.0
28/05:00pm 16.9 12.6 7.0 52 4.9 S 19 37 10 20 1022.6 - 0.0
28/04:40pm 16.2 10.3 7.7 57 4.3 SSE 28 43 15 23 1022.7 - -
28/04:00pm 15.8 10.1 8.3 61 3.8 SSE 28 46 15 25 1022.7 - -
28/03:30pm 16.4 10.6 8.1 58 4.2 S 28 48 15 26 1022.6 - -
28/03:00pm 16.6 10.5 8.1 57 4.3 S 30 57 16 31 1022.3 1022.2 -
28/02:40pm 15.7 9.8 7.7 59 4.0 S 28 52 15 28 1022.4 - -
28/02:30pm 15.7 9.8 7.7 59 4.0 SSE 28 44 15 24 1022.5 - 0.0
28/02:00pm 16.5 11.9 6.6 52 4.9 S 20 46 11 25 1022.6 - 0.0
28/01:30pm 16.2 11.5 7.9 58 4.2 S 22 43 12 23 1022.7 - 0.0
28/01:00pm 16.3 11.2 7.5 56 4.4 S 24 44 13 24 1022.7 - 0.0
28/12:34pm 15.0 9.4 8.7 66 3.2 S 28 48 15 26 1022.9 - 0.0
28/12:30pm 14.9 9.6 8.6 66 3.2 S 26 37 14 20 1022.8 - 0.0
28/12:00pm 16.1 11.3 8.8 62 3.7 S 24 43 13 23 1022.6 1022.5 0.0
28/11:30am 15.8 11.6 9.7 67 3.2 S 22 35 12 19 1022.8 - 0.0
28/11:13am 15.4 9.8 8.9 65 3.3 S 28 48 15 26 1022.7 - 0.0
28/11:12am 15.6 10.1 9.3 66 3.3 S 28 48 15 26 1022.7 - 0.0
28/11:00am 15.6 10.5 7.6 59 4.0 S 24 41 13 22 1022.8 - 0.0
28/10:34am 15.6 10.1 9.1 65 3.3 S 28 46 15 25 1022.6 - 0.0
28/10:30am 15.4 10.7 9.1 66 3.2 S 24 46 13 25 1022.6 - 0.0
28/10:00am 15.0 10.4 8.3 64 3.4 S 22 43 12 23 1022.4 - 0.0
28/09:30am 15.3 11.1 8.3 63 3.5 S 20 39 11 21 1022.2 - 0.0
28/09:00am 14.6 10.2 7.4 62 3.5 S 20 37 11 20 1022.1 1022.0 3.4
28/08:30am 13.7 9.2 6.1 60 3.6 S 19 32 10 17 1022.0 - 3.4
28/08:00am 13.2 10.2 5.9 61 3.5 SSW 11 20 6 11 1021.7 - 3.4
28/07:30am 12.8 9.8 5.9 63 3.3 SSW 11 19 6 10 1021.5 - 3.4
28/07:00am 12.6 8.4 5.8 63 3.2 S 17 28 9 15 1021.3 - 3.4
28/06:30am 12.2 9.2 5.8 65 3.0 S 11 17 6 9 1021.0 - 3.4
28/06:00am 11.8 7.6 5.9 67 2.8 S 17 24 9 13 1020.7 1020.6 3.4
28/05:30am 11.6 7.6 6.7 72 2.3 S 17 28 9 15 1020.4 - 3.4
28/05:00am 11.6 8.4 6.9 73 2.2 S 13 20 7 11 1020.1 - 3.4
28/04:30am 11.8 8.3 7.1 73 2.3 S 15 32 8 17 1020.0 - 3.4
28/04:00am 12.1 8.2 7.2 72 2.4 S 17 28 9 15 1020.0 - 3.4
28/03:30am 12.3 8.5 7.6 73 2.3 S 17 28 9 15 1020.1 - 3.4
28/03:00am 12.4 9.7 8.9 79 1.7 S 13 22 7 12 1020.4 1020.3 3.4
28/02:30am 12.3 10.3 10.2 87 1.1 S 11 20 6 11 1020.5 - 3.4
28/02:00am 12.3 9.5 10.0 86 1.2 S 15 24 8 13 1020.7 - 3.4
28/01:30am 12.8 9.6 10.0 83 1.4 S 17 26 9 14 1020.7 - 3.4
28/01:00am 12.5 10.2 10.4 87 1.1 S 13 20 7 11 1020.4 - 3.4
28/12:30am 12.5 9.9 10.6 88 1.0 S 15 24 8 13 1020.4 - 3.4
28/12:00am 13.9 10.2 9.3 74 2.3 S 19 32 10 17 1020.4 1020.3 2.8
 
Date/Time
EDT
Temp
°C
App
Temp
°C
Dew
Point
Rel
Hum
%
Delta-T
°C
Wind Press
QNH
hPa
Press
MSL
hPa
Rain
since 9 am
mm
Dir
 
Spd
km/h
Gust
km/h
Spd
kts
Gust
kts
27/11:30pm 14.8 12.0 8.5 66 3.2 SSE 13 20 7 11 1020.2 - 2.8
27/11:00pm 14.7 11.5 8.4 66 3.2 SSE 15 26 8 14 1020.3 - 2.8
27/10:30pm 14.8 11.7 9.0 68 3.0 SSE 15 30 8 16 1020.3 - 2.8
27/10:00pm 14.9 11.6 9.5 70 2.8 SSE 17 30 9 16 1020.2 - 2.8

Other Formats:

Comma delimited format used in spreadsheet applications
http://www.bom.gov.au/fwo/IDT60801/IDT60801.95981.axf

JavaScript Object Notation format (JSON) in row-major order
http://www.bom.gov.au/fwo/IDT60801/IDT60801.95981.json